createdAt,value
2022-08-17T00:01:32.697Z,13.65
2022-08-17T00:04:19.020Z,15.45
2022-08-17T00:06:45.835Z,13.32
2022-08-17T00:09:18.977Z,13.68
2022-08-17T00:12:35.133Z,15.63
2022-08-17T00:14:36.088Z,16.38
2022-08-17T00:17:04.646Z,15.25
2022-08-17T00:19:32.667Z,14.20
2022-08-17T00:22:35.299Z,13.52
2022-08-17T00:24:49.892Z,14.18
2022-08-17T00:27:17.236Z,15.55
2022-08-17T00:29:45.590Z,15.82
2022-08-17T00:33:15.072Z,16.27
2022-08-17T00:34:59.940Z,16.15
2022-08-17T00:37:26.488Z,15.63
2022-08-17T00:39:53.090Z,14.20
2022-08-17T00:42:20.048Z,14.52
2022-08-17T00:44:46.741Z,14.02
2022-08-17T00:47:13.969Z,13.52
2022-08-17T00:49:40.560Z,13.75
2022-08-17T00:52:15.509Z,13.25
2022-08-17T00:54:46.516Z,15.80
2022-08-17T00:57:18.469Z,15.38
2022-08-17T01:00:02.179Z,14.13
2022-08-17T01:02:34.331Z,15.23
2022-08-17T01:05:08.671Z,14.73
2022-08-17T01:07:35.345Z,14.23
2022-08-17T01:10:08.423Z,14.40
2022-08-17T01:12:55.638Z,15.98
2022-08-17T01:15:22.790Z,15.63
2022-08-17T01:17:49.641Z,17.27
2022-08-17T01:20:16.907Z,15.68
2022-08-17T01:22:43.518Z,14.43
2022-08-17T01:25:12.677Z,17.45
2022-08-17T01:27:39.470Z,16.15
2022-08-17T01:30:58.723Z,15.10
2022-08-17T01:32:55.659Z,15.48
2022-08-17T01:35:22.203Z,15.95
2022-08-17T01:37:48.758Z,14.50
2022-08-17T01:40:21.254Z,14.25
2022-08-17T01:42:56.764Z,15.77
2022-08-17T01:45:28.134Z,15.48
2022-08-17T01:47:55.487Z,14.93
2022-08-17T01:50:29.198Z,14.75
2022-08-17T01:52:59.841Z,15.98
2022-08-17T01:55:38.640Z,14.50
2022-08-17T01:58:09.620Z,14.52
2022-08-17T02:00:46.693Z,14.40
2022-08-17T02:03:26.107Z,14.35
2022-08-17T02:05:53.629Z,14.63
2022-08-17T02:08:21.475Z,16.52
2022-08-17T02:11:11.326Z,15.73
2022-08-17T02:13:38.684Z,16.17
2022-08-17T02:16:05.801Z,17.05
2022-08-17T02:18:32.307Z,17.75
2022-08-17T02:20:59.477Z,16.77
2022-08-17T02:23:28.806Z,17.48
2022-08-17T02:25:59.097Z,15.52
2022-08-17T02:28:26.593Z,17.00
2022-08-17T02:31:01.181Z,15.35
2022-08-17T02:33:42.716Z,17.63
2022-08-17T02:36:11.476Z,14.82
2022-08-17T02:38:39.438Z,17.42
2022-08-17T02:41:06.190Z,18.23
2022-08-17T02:43:32.932Z,16.60
2022-08-17T02:45:59.421Z,19.20
2022-08-17T02:48:30.824Z,18.80
2022-08-17T02:50:58.947Z,20.27
2022-08-17T02:53:25.618Z,23.88
2022-08-17T02:55:52.762Z,21.85
2022-08-17T02:58:34.743Z,20.73
2022-08-17T03:01:03.401Z,19.65
2022-08-17T03:03:30.079Z,17.85
2022-08-17T03:05:56.634Z,12.10
2022-08-17T03:08:23.444Z,10.40
2022-08-17T03:10:50.522Z,11.07
2022-08-17T03:13:17.673Z,10.70
2022-08-17T03:15:46.396Z,10.73
2022-08-17T03:18:19.326Z,11.50
2022-08-17T03:20:55.493Z,11.75
2022-08-17T03:23:24.249Z,10.75
2022-08-17T03:25:53.737Z,11.68
2022-08-17T03:28:21.621Z,11.52
2022-08-17T03:30:49.364Z,11.60
2022-08-17T03:33:16.942Z,11.00
2022-08-17T03:35:44.092Z,10.50
2022-08-17T03:38:12.539Z,11.90
2022-08-17T03:40:57.855Z,10.60
2022-08-17T03:43:27.647Z,11.20
2022-08-17T03:46:34.759Z,11.63
2022-08-17T03:49:17.746Z,11.80
2022-08-17T03:54:47.700Z,11.88
2022-08-17T03:57:14.365Z,11.80
2022-08-17T03:59:41.033Z,11.13
2022-08-17T04:02:29.864Z,12.85
2022-08-17T04:04:56.715Z,12.80
2022-08-17T04:07:25.517Z,12.98
2022-08-17T04:09:52.092Z,13.48
2022-08-17T04:12:21.600Z,12.13
2022-08-17T04:14:53.088Z,11.77
2022-08-17T04:17:21.739Z,12.45
2022-08-17T04:19:48.287Z,10.77
2022-08-17T04:22:30.732Z,9.38
2022-08-17T04:27:27.628Z,8.18
2022-08-17T04:29:55.295Z,6.95
2022-08-17T04:33:00.786Z,6.68
2022-08-17T04:35:10.230Z,6.22
2022-08-17T04:37:36.800Z,4.32
2022-08-17T04:40:22.954Z,4.55
2022-08-17T04:43:04.998Z,4.10
2022-08-17T04:45:32.327Z,4.28
2022-08-17T04:47:59.349Z,3.83
2022-08-17T04:50:26.037Z,3.50
2022-08-17T04:52:52.615Z,3.47
2022-08-17T04:55:19.134Z,2.85
2022-08-17T04:57:45.754Z,3.22
2022-08-17T05:00:12.729Z,2.90
2022-08-17T05:02:50.697Z,2.75
2022-08-17T05:05:27.807Z,3.25
2022-08-17T05:07:59.797Z,2.88
2022-08-17T05:10:29.072Z,3.40
2022-08-17T05:13:08.429Z,2.75
2022-08-17T05:15:39.513Z,3.53
2022-08-17T05:18:12.057Z,2.72
2022-08-17T05:20:40.558Z,3.05
2022-08-17T05:23:14.862Z,3.20
2022-08-17T05:25:47.521Z,3.00
2022-08-17T05:28:16.264Z,3.53
2022-08-17T05:30:44.629Z,3.55
2022-08-17T05:33:17.548Z,3.75
2022-08-17T05:35:47.797Z,4.10
2022-08-17T05:38:16.806Z,4.65
2022-08-17T05:40:44.751Z,3.85
2022-08-17T05:43:12.841Z,4.05
2022-08-17T05:46:01.063Z,4.07
2022-08-17T05:48:35.318Z,4.50
2022-08-17T05:51:15.434Z,3.70
2022-08-17T05:54:00.531Z,4.15
2022-08-17T05:56:57.144Z,3.65
2022-08-17T05:59:55.055Z,3.72
2022-08-17T06:02:38.999Z,4.10
2022-08-17T06:05:28.932Z,3.78
2022-08-17T06:08:23.417Z,3.45
2022-08-17T06:11:14.654Z,4.30
2022-08-17T06:13:57.684Z,2.60
2022-08-17T06:16:34.512Z,3.22
2022-08-17T06:19:17.817Z,2.72
2022-08-17T06:21:48.459Z,3.03
2022-08-17T06:24:34.294Z,3.00
2022-08-17T06:27:21.931Z,3.22
2022-08-17T06:30:09.313Z,2.60
2022-08-17T06:32:45.748Z,3.03
2022-08-17T06:35:16.760Z,4.30
2022-08-17T06:37:53.901Z,4.45
2022-08-17T06:40:45.531Z,5.10
2022-08-17T06:43:19.617Z,5.15
2022-08-17T06:46:06.383Z,5.05
2022-08-17T06:48:56.944Z,5.72
2022-08-17T06:51:30.120Z,7.82
2022-08-17T06:54:45.684Z,7.72
2022-08-17T06:57:33.716Z,4.93
2022-08-17T07:00:09.352Z,5.20
2022-08-17T07:03:05.707Z,5.18
2022-08-17T07:05:38.673Z,5.75
2022-08-17T07:08:19.331Z,5.55
2022-08-17T07:10:55.507Z,6.70
2022-08-17T07:13:53.197Z,5.22
2022-08-17T07:16:24.899Z,4.88
2022-08-17T07:18:53.232Z,5.80
2022-08-17T07:21:43.103Z,5.55
2022-08-17T07:24:42.106Z,5.40
2022-08-17T07:27:11.837Z,5.32
2022-08-17T07:29:42.014Z,5.82
2022-08-17T07:32:11.516Z,7.10
2022-08-17T07:35:08.497Z,7.05
2022-08-17T07:37:40.105Z,8.32
2022-08-17T07:40:18.091Z,9.80
2022-08-17T07:43:24.162Z,10.10
2022-08-17T07:46:23.083Z,11.20
2022-08-17T07:48:53.734Z,11.85
2022-08-17T07:51:25.299Z,12.63
2022-08-17T07:53:53.817Z,14.05
2022-08-17T07:56:46.805Z,14.02
2022-08-17T07:59:24.971Z,15.45
2022-08-17T08:01:56.226Z,14.15
2022-08-17T08:07:21.814Z,16.20
2022-08-17T08:10:04.414Z,17.42
2022-08-17T08:12:48.198Z,18.42
2022-08-17T08:15:25.623Z,17.75
2022-08-17T08:17:56.276Z,17.27
2022-08-17T08:20:52.185Z,16.30
2022-08-17T08:23:25.622Z,15.15
2022-08-17T08:26:18.867Z,13.30
2022-08-17T08:29:10.096Z,11.40
2022-08-17T08:32:07.717Z,10.75
2022-08-17T08:35:02.247Z,10.90
2022-08-17T08:37:48.186Z,10.68
2022-08-17T08:40:42.860Z,8.85
2022-08-17T08:43:17.522Z,6.97
2022-08-17T08:46:29.713Z,6.45
2022-08-17T08:49:16.357Z,6.53
2022-08-17T08:51:50.685Z,6.30
2022-08-17T08:54:45.747Z,6.53
2022-08-17T08:57:25.554Z,7.10
2022-08-17T09:00:05.028Z,6.82
2022-08-17T09:02:37.494Z,6.65
2022-08-17T09:05:22.685Z,7.97
2022-08-17T09:10:43.341Z,7.78
2022-08-17T09:13:28.560Z,7.40
2022-08-17T09:19:01.044Z,8.15
2022-08-17T09:21:48.786Z,8.70
2022-08-17T09:24:37.273Z,8.55
2022-08-17T09:27:22.123Z,9.18
2022-08-17T09:29:57.765Z,8.35
2022-08-17T09:32:34.121Z,7.60
2022-08-17T09:35:08.912Z,7.05
2022-08-17T09:37:52.067Z,6.63
2022-08-17T09:40:25.579Z,6.53
2022-08-17T09:43:17.861Z,7.03
2022-08-17T09:45:57.259Z,7.65
2022-08-17T09:48:48.277Z,5.93
2022-08-17T09:51:40.175Z,5.85
2022-08-17T09:54:44.470Z,6.50
2022-08-17T09:57:30.469Z,5.70
2022-08-17T10:00:24.979Z,6.32
2022-08-17T10:03:10.229Z,7.47
2022-08-17T10:08:32.648Z,6.53
2022-08-17T10:11:10.508Z,6.15
2022-08-17T10:13:59.740Z,6.18
2022-08-17T10:16:38.864Z,5.43
2022-08-17T10:19:26.650Z,5.65
2022-08-17T10:22:35.272Z,4.97
2022-08-17T10:25:27.779Z,4.63
2022-08-17T10:28:12.939Z,5.63
2022-08-17T10:30:50.567Z,4.93
2022-08-17T10:33:24.259Z,5.47
2022-08-17T10:36:11.115Z,5.95
2022-08-17T10:38:47.915Z,6.78
2022-08-17T10:41:20.484Z,9.07
2022-08-17T10:44:35.380Z,9.27
2022-08-17T10:47:06.568Z,10.80
2022-08-17T10:49:35.850Z,12.30
2022-08-17T10:52:22.928Z,13.48
2022-08-17T10:54:51.704Z,14.55
2022-08-17T10:57:34.470Z,14.35
2022-08-17T11:00:06.387Z,15.15
2022-08-17T11:02:54.415Z,15.10
2022-08-17T11:05:43.745Z,13.50
2022-08-17T11:08:25.657Z,12.05
2022-08-17T11:11:01.303Z,11.00
2022-08-17T11:13:40.565Z,10.65
2022-08-17T11:16:28.397Z,9.85
2022-08-17T11:19:39.505Z,8.60
2022-08-17T11:22:33.341Z,7.68
2022-08-17T11:25:39.503Z,7.55
2022-08-17T11:28:16.900Z,7.28
2022-08-17T11:31:01.657Z,7.88
2022-08-17T11:33:36.806Z,7.95
2022-08-17T11:37:01.804Z,7.85
2022-08-17T11:40:01.707Z,7.45
2022-08-17T11:42:43.577Z,8.70
2022-08-17T11:45:31.800Z,8.48
2022-08-17T11:48:33.363Z,9.98
2022-08-17T11:51:47.666Z,9.50
2022-08-17T11:54:34.429Z,10.02
2022-08-17T11:57:26.382Z,9.98
2022-08-17T12:00:00.774Z,10.75
2022-08-17T12:02:38.747Z,11.60
2022-08-17T12:05:14.153Z,11.18
2022-08-17T12:07:42.482Z,10.23
2022-08-17T12:10:12.405Z,11.30
2022-08-17T12:12:43.494Z,11.60
2022-08-17T12:15:18.923Z,9.90
2022-08-17T12:17:53.964Z,10.02
2022-08-17T12:20:28.370Z,8.90
2022-08-17T12:23:09.246Z,10.25
2022-08-17T12:25:56.907Z,9.50
2022-08-17T12:28:31.713Z,8.25
2022-08-17T12:33:35.913Z,6.90
2022-08-17T12:36:07.454Z,7.30
2022-08-17T12:38:37.603Z,7.53
2022-08-17T12:41:27.106Z,7.85
2022-08-17T12:44:04.912Z,7.57
2022-08-17T12:46:45.422Z,7.25
2022-08-17T12:49:18.155Z,7.88
2022-08-17T12:51:47.557Z,7.75
2022-08-17T12:54:25.572Z,8.13
2022-08-17T12:56:52.253Z,9.32
2022-08-17T12:59:30.113Z,9.13
2022-08-17T13:01:57.299Z,8.52
2022-08-17T13:04:24.205Z,8.80
2022-08-17T13:06:59.656Z,9.02
2022-08-17T13:09:40.063Z,8.30
2022-08-17T13:12:08.226Z,8.60
2022-08-17T13:14:35.516Z,8.32
2022-08-17T13:17:09.635Z,7.93
2022-08-17T13:19:48.365Z,9.90
2022-08-17T13:22:14.966Z,9.15
2022-08-17T13:24:53.103Z,8.50
2022-08-17T13:27:22.059Z,9.15
2022-08-17T13:29:56.375Z,9.07
2022-08-17T13:32:43.766Z,8.63
2022-08-17T13:35:50.170Z,9.20
2022-08-17T13:38:47.312Z,9.85
2022-08-17T13:41:40.644Z,10.23
2022-08-17T13:44:33.768Z,10.07
2022-08-17T13:47:02.325Z,11.00
2022-08-17T13:49:41.504Z,9.93
2022-08-17T13:52:37.918Z,9.65
2022-08-17T13:55:27.033Z,9.13
2022-08-17T13:58:03.689Z,10.00
2022-08-17T14:00:36.212Z,8.85
2022-08-17T14:03:04.570Z,9.23
2022-08-17T14:05:32.044Z,9.23
2022-08-17T14:08:02.296Z,9.32
2022-08-17T14:10:35.884Z,8.90
2022-08-17T14:13:02.728Z,9.10
2022-08-17T14:15:55.173Z,9.38
2022-08-17T14:18:18.019Z,9.02
2022-08-17T14:21:02.341Z,9.98
2022-08-17T14:23:35.200Z,10.05
2022-08-17T14:26:02.364Z,10.27
2022-08-17T14:28:28.860Z,9.35
2022-08-17T14:30:55.504Z,9.48
2022-08-17T14:33:22.567Z,11.43
2022-08-17T14:35:52.973Z,10.63
2022-08-17T14:38:20.711Z,11.05
2022-08-17T14:40:47.660Z,10.30
2022-08-17T14:43:15.865Z,9.90
2022-08-17T14:45:43.031Z,10.52
2022-08-17T14:48:10.015Z,10.48
2022-08-17T14:50:41.867Z,12.15
2022-08-17T14:53:11.023Z,11.30
2022-08-17T14:55:40.437Z,10.07
2022-08-17T14:58:08.746Z,10.73
2022-08-17T15:00:35.385Z,10.60
2022-08-17T15:03:02.585Z,11.80
2022-08-17T15:05:33.663Z,11.55
2022-08-17T15:08:01.649Z,11.75
2022-08-17T15:10:29.328Z,11.80
2022-08-17T15:12:56.245Z,12.55
2022-08-17T15:15:23.723Z,12.30
2022-08-17T15:17:51.379Z,12.93
2022-08-17T15:20:21.920Z,11.77
2022-08-17T15:23:09.505Z,12.27
2022-08-17T15:25:36.011Z,10.75
2022-08-17T15:28:02.619Z,10.90
2022-08-17T15:30:30.078Z,10.57
2022-08-17T15:32:58.750Z,10.00
2022-08-17T15:35:29.162Z,10.52
2022-08-17T15:38:11.039Z,9.57
2022-08-17T15:40:41.767Z,9.10
2022-08-17T15:43:11.513Z,9.57
2022-08-17T15:45:39.195Z,9.63
2022-08-17T15:48:05.804Z,10.35
2022-08-17T15:50:32.548Z,10.75
2022-08-17T15:53:01.256Z,10.07
2022-08-17T15:55:29.885Z,11.10
2022-08-17T15:57:56.596Z,10.70
2022-08-17T16:00:26.187Z,9.60
2022-08-17T16:03:14.151Z,10.07
2022-08-17T16:05:40.642Z,11.45
2022-08-17T16:08:07.521Z,10.30
2022-08-17T16:10:35.122Z,10.68
2022-08-17T16:13:03.479Z,9.40
2022-08-17T16:15:31.518Z,9.52
2022-08-17T16:17:58.205Z,9.05
2022-08-17T16:20:24.711Z,10.52
2022-08-17T16:22:51.722Z,12.50
2022-08-17T16:25:22.799Z,11.73
2022-08-17T16:28:06.265Z,11.50
2022-08-17T16:30:33.252Z,12.68
2022-08-17T16:33:01.553Z,12.10
2022-08-17T16:35:28.402Z,12.70
2022-08-17T16:37:57.149Z,12.57
2022-08-17T16:40:26.393Z,13.13
2022-08-17T16:42:54.172Z,13.10
2022-08-17T16:45:26.925Z,13.13
2022-08-17T16:47:55.239Z,14.98
2022-08-17T16:50:23.794Z,13.75
2022-08-17T16:52:51.341Z,13.95
2022-08-17T16:55:20.746Z,13.88
2022-08-17T16:57:50.550Z,13.50
2022-08-17T17:00:19.347Z,14.35
2022-08-17T17:02:48.121Z,12.68
2022-08-17T17:05:36.602Z,13.27
2022-08-17T17:08:13.301Z,13.05
2022-08-17T17:10:50.805Z,13.43
2022-08-17T17:13:26.041Z,12.68
2022-08-17T17:15:58.565Z,13.13
2022-08-17T17:18:47.875Z,12.18
2022-08-17T17:21:19.834Z,12.15
2022-08-17T17:23:54.859Z,12.23
2022-08-17T17:26:29.747Z,11.05
2022-08-17T17:29:47.306Z,10.98
2022-08-17T17:32:41.636Z,10.70
2022-08-17T17:35:22.938Z,11.23
2022-08-17T17:37:50.367Z,10.68
2022-08-17T17:40:39.438Z,10.50
2022-08-17T17:43:37.145Z,9.32
2022-08-17T17:46:07.719Z,10.23
2022-08-17T17:48:48.180Z,9.13
2022-08-17T17:51:54.698Z,9.95
2022-08-17T17:54:32.430Z,10.02
2022-08-17T17:57:11.028Z,9.50
2022-08-17T17:59:54.812Z,9.35
2022-08-17T18:02:52.752Z,9.57
2022-08-17T18:05:50.715Z,8.88
2022-08-17T18:08:53.276Z,9.85
2022-08-17T18:11:39.872Z,9.30
2022-08-17T18:14:36.357Z,8.77
2022-08-17T18:17:03.076Z,8.60
2022-08-17T18:19:31.810Z,9.57
2022-08-17T18:22:13.081Z,8.25
2022-08-17T18:24:44.768Z,8.35
2022-08-17T18:27:32.043Z,9.07
2022-08-17T18:30:12.631Z,10.20
2022-08-17T18:32:44.442Z,8.98
2022-08-17T18:35:11.064Z,8.80
2022-08-17T18:37:43.403Z,9.25
2022-08-17T18:40:19.573Z,8.45
2022-08-17T18:43:20.245Z,8.48
2022-08-17T18:45:49.471Z,8.13
2022-08-17T18:48:28.024Z,9.23
2022-08-17T18:50:59.149Z,8.07
2022-08-17T18:53:39.309Z,9.00
2022-08-17T18:56:24.950Z,8.15
2022-08-17T18:58:53.846Z,8.13
2022-08-17T19:01:21.693Z,8.20
2022-08-17T19:04:27.399Z,8.30
2022-08-17T19:07:25.286Z,8.13
2022-08-17T19:10:18.003Z,7.80
2022-08-17T19:12:53.702Z,7.57
2022-08-17T19:15:31.308Z,7.95
2022-08-17T19:18:02.243Z,7.85
2022-08-17T19:20:35.373Z,7.43
2022-08-17T19:23:21.160Z,7.28
2022-08-17T19:25:53.557Z,6.75
2022-08-17T19:28:27.655Z,6.80
2022-08-17T19:31:03.357Z,6.85
2022-08-17T19:33:31.408Z,6.30
2022-08-17T19:36:09.930Z,6.72
2022-08-17T19:38:53.875Z,6.13
2022-08-17T19:41:29.537Z,5.93
2022-08-17T19:44:27.009Z,7.22
2022-08-17T19:47:12.409Z,6.03
2022-08-17T19:49:48.496Z,5.43
2022-08-17T19:52:27.018Z,6.72
2022-08-17T19:55:03.089Z,6.18
2022-08-17T19:57:43.914Z,6.32
2022-08-17T20:00:14.854Z,6.60
2022-08-17T20:03:06.371Z,6.22
2022-08-17T20:06:08.559Z,6.45
2022-08-17T20:08:29.240Z,5.70
2022-08-17T20:10:55.687Z,5.15
2022-08-17T20:14:03.849Z,4.78
2022-08-17T20:16:33.314Z,4.55
2022-08-17T20:19:06.624Z,3.92
2022-08-17T20:21:52.159Z,4.18
2022-08-17T20:24:41.930Z,4.30
2022-08-17T20:27:19.690Z,4.03
2022-08-17T20:30:05.490Z,4.53
2022-08-17T20:32:58.096Z,4.40
2022-08-17T20:35:33.754Z,5.53
2022-08-17T20:38:04.282Z,4.55
2022-08-17T20:40:35.689Z,4.32
2022-08-17T20:43:33.212Z,5.13
2022-08-17T20:46:26.814Z,4.22
2022-08-17T20:48:58.534Z,4.35
2022-08-17T20:51:34.822Z,4.05
2022-08-17T20:54:08.168Z,4.25
2022-08-17T20:56:43.993Z,4.28
2022-08-17T20:59:55.133Z,3.78
2022-08-17T21:02:23.834Z,4.03
2022-08-17T21:04:50.476Z,4.78
2022-08-17T21:07:43.728Z,4.13
2022-08-17T21:10:18.355Z,3.75
2022-08-17T21:12:50.654Z,4.20
2022-08-17T21:15:17.193Z,3.88
2022-08-17T21:17:50.240Z,3.35
2022-08-17T21:21:00.795Z,3.65
2022-08-17T21:23:37.457Z,3.58
2022-08-17T21:26:17.305Z,3.67
2022-08-17T21:29:29.997Z,3.80
2022-08-17T21:32:09.601Z,3.95
2022-08-17T21:34:44.701Z,3.78
2022-08-17T21:37:20.834Z,3.63
2022-08-17T21:39:52.482Z,4.18
2022-08-17T21:42:34.433Z,4.28
2022-08-17T21:45:11.954Z,3.92
2022-08-17T21:47:48.764Z,3.70
2022-08-17T21:50:23.450Z,5.28
2022-08-17T21:52:56.006Z,4.65
2022-08-17T21:55:28.642Z,4.47
2022-08-17T21:58:19.255Z,4.38
2022-08-17T22:00:45.953Z,3.88
2022-08-17T22:03:26.018Z,4.28
2022-08-17T22:05:52.615Z,3.78
2022-08-17T22:08:21.861Z,3.80
2022-08-17T22:10:51.224Z,3.17
2022-08-17T22:13:17.894Z,4.10
2022-08-17T22:16:15.222Z,4.15
2022-08-17T22:18:43.418Z,4.07
2022-08-17T22:21:09.953Z,3.45
2022-08-17T22:24:01.030Z,4.25
2022-08-17T22:27:01.778Z,4.93
2022-08-17T22:30:14.500Z,4.75
2022-08-17T22:32:45.500Z,5.20
2022-08-17T22:35:42.620Z,4.40
2022-08-17T22:38:18.579Z,3.20
2022-08-17T22:40:54.482Z,4.15
2022-08-17T22:43:26.554Z,3.60
2022-08-17T22:45:57.537Z,3.13
2022-08-17T22:48:29.400Z,5.50
2022-08-17T22:51:23.145Z,3.20
2022-08-17T22:54:17.397Z,3.20
2022-08-17T22:57:33.701Z,2.72
2022-08-17T23:02:32.723Z,2.40
2022-08-17T23:08:00.667Z,2.72
2022-08-17T23:15:40.942Z,2.22
2022-08-17T23:18:07.925Z,2.08
2022-08-17T23:20:36.460Z,2.13
2022-08-17T23:23:06.775Z,3.33
2022-08-17T23:25:35.137Z,2.15
2022-08-17T23:28:04.839Z,2.17
2022-08-17T23:30:35.582Z,2.65
2022-08-17T23:33:06.475Z,2.80
2022-08-17T23:35:39.258Z,2.58
2022-08-17T23:38:07.666Z,1.50
2022-08-17T23:40:34.512Z,2.22
2022-08-17T23:43:01.181Z,1.65
2022-08-17T23:45:32.614Z,1.73
2022-08-17T23:48:00.301Z,1.77
2022-08-17T23:50:30.001Z,2.10
2022-08-17T23:52:57.922Z,1.98
2022-08-17T23:55:24.421Z,2.10
2022-08-17T23:57:51.124Z,2.28
